sensor_id;sensor_type;location;lat;lon;timestamp;temperature;humidity
35127;DHT22;21300;52.006;5.798;2023-04-01T00:00:52;10.40;99.90
35127;DHT22;21300;52.006;5.798;2023-04-01T00:03:19;10.40;99.90
35127;DHT22;21300;52.006;5.798;2023-04-01T00:05:45;10.40;99.90
35127;DHT22;21300;52.006;5.798;2023-04-01T00:08:11;10.40;99.90
35127;DHT22;21300;52.006;5.798;2023-04-01T00:10:37;10.40;99.90
35127;DHT22;21300;52.006;5.798;2023-04-01T00:13:03;10.40;99.90
35127;DHT22;21300;52.006;5.798;2023-04-01T00:15:28;10.40;99.90
35127;DHT22;21300;52.006;5.798;2023-04-01T00:17:54;10.40;99.90
35127;DHT22;21300;52.006;5.798;2023-04-01T00:20:21;10.40;99.90
35127;DHT22;21300;52.006;5.798;2023-04-01T00:22:46;10.30;99.90
35127;DHT22;21300;52.006;5.798;2023-04-01T00:25:12;10.40;99.90
35127;DHT22;21300;52.006;5.798;2023-04-01T00:27:38;10.40;99.90
35127;DHT22;21300;52.006;5.798;2023-04-01T00:30:04;10.30;99.90
35127;DHT22;21300;52.006;5.798;2023-04-01T00:32:31;10.40;99.90
35127;DHT22;21300;52.006;5.798;2023-04-01T00:34:56;10.30;99.90
35127;DHT22;21300;52.006;5.798;2023-04-01T00:37:25;10.30;99.90
35127;DHT22;21300;52.006;5.798;2023-04-01T00:39:51;10.30;99.90
35127;DHT22;21300;52.006;5.798;2023-04-01T00:42:17;10.30;99.90
35127;DHT22;21300;52.006;5.798;2023-04-01T00:44:47;10.30;99.90
35127;DHT22;21300;52.006;5.798;2023-04-01T00:47:13;10.30;99.90
35127;DHT22;21300;52.006;5.798;2023-04-01T00:49:40;10.30;99.90
35127;DHT22;21300;52.006;5.798;2023-04-01T00:52:08;10.30;99.90
35127;DHT22;21300;52.006;5.798;2023-04-01T00:54:37;10.30;99.90
35127;DHT22;21300;52.006;5.798;2023-04-01T00:57:08;10.30;99.90
35127;DHT22;21300;52.006;5.798;2023-04-01T00:59:38;10.30;99.90
35127;DHT22;21300;52.006;5.798;2023-04-01T01:02:07;10.30;99.90
35127;DHT22;21300;52.006;5.798;2023-04-01T01:04:34;10.30;99.90
35127;DHT22;21300;52.006;5.798;2023-04-01T01:10:11;10.30;99.90
35127;DHT22;21300;52.006;5.798;2023-04-01T01:36:14;10.30;99.90
35127;DHT22;21300;52.006;5.798;2023-04-01T01:38:40;10.30;99.90
35127;DHT22;21300;52.006;5.798;2023-04-01T01:41:07;10.20;99.90
35127;DHT22;21300;52.006;5.798;2023-04-01T01:43:39;10.20;99.90
35127;DHT22;21300;52.006;5.798;2023-04-01T01:46:14;10.30;99.90
35127;DHT22;21300;52.006;5.798;2023-04-01T01:48:42;10.20;99.90
35127;DHT22;21300;52.006;5.798;2023-04-01T01:51:09;10.20;99.90
35127;DHT22;21300;52.006;5.798;2023-04-01T01:53:35;10.20;99.90
35127;DHT22;21300;52.006;5.798;2023-04-01T01:56:01;10.20;99.90
35127;DHT22;21300;52.006;5.798;2023-04-01T01:58:30;10.20;99.90
35127;DHT22;21300;52.006;5.798;2023-04-01T02:01:00;10.30;99.90
35127;DHT22;21300;52.006;5.798;2023-04-01T02:03:29;10.20;99.90
35127;DHT22;21300;52.006;5.798;2023-04-01T02:05:57;10.20;99.90
35127;DHT22;21300;52.006;5.798;2023-04-01T02:08:33;10.20;99.90
35127;DHT22;21300;52.006;5.798;2023-04-01T02:11:03;10.20;99.90
35127;DHT22;21300;52.006;5.798;2023-04-01T02:14:10;10.20;99.90
35127;DHT22;21300;52.006;5.798;2023-04-01T02:19:27;10.20;99.90
35127;DHT22;21300;52.006;5.798;2023-04-01T02:21:57;10.20;99.90
35127;DHT22;21300;52.006;5.798;2023-04-01T02:24:26;10.20;99.90
35127;DHT22;21300;52.006;5.798;2023-04-01T02:26:53;10.20;99.90
35127;DHT22;21300;52.006;5.798;2023-04-01T02:29:22;10.20;99.90
35127;DHT22;21300;52.006;5.798;2023-04-01T02:31:50;10.20;99.90
35127;DHT22;21300;52.006;5.798;2023-04-01T02:34:16;10.20;99.90
35127;DHT22;21300;52.006;5.798;2023-04-01T02:36:42;10.20;99.90
35127;DHT22;21300;52.006;5.798;2023-04-01T02:39:08;10.20;99.90
35127;DHT22;21300;52.006;5.798;2023-04-01T02:41:41;10.20;99.90
35127;DHT22;21300;52.006;5.798;2023-04-01T02:44:08;10.10;99.90
35127;DHT22;21300;52.006;5.798;2023-04-01T02:46:34;10.20;99.90
35127;DHT22;21300;52.006;5.798;2023-04-01T02:49:00;10.20;99.90
35127;DHT22;21300;52.006;5.798;2023-04-01T02:51:26;10.10;99.90
35127;DHT22;21300;52.006;5.798;2023-04-01T02:53:52;10.10;99.90
35127;DHT22;21300;52.006;5.798;2023-04-01T02:56:17;10.20;99.90
35127;DHT22;21300;52.006;5.798;2023-04-01T02:58:45;10.10;99.90
35127;DHT22;21300;52.006;5.798;2023-04-01T03:01:10;10.10;99.90
35127;DHT22;21300;52.006;5.798;2023-04-01T03:03:36;10.10;99.90
35127;DHT22;21300;52.006;5.798;2023-04-01T03:06:10;10.10;99.90
35127;DHT22;21300;52.006;5.798;2023-04-01T03:08:37;10.10;99.90
35127;DHT22;21300;52.006;5.798;2023-04-01T03:11:03;10.20;99.90
35127;DHT22;21300;52.006;5.798;2023-04-01T03:13:28;10.20;99.90
35127;DHT22;21300;52.006;5.798;2023-04-01T03:15:54;10.10;99.90
35127;DHT22;21300;52.006;5.798;2023-04-01T03:18:20;10.10;99.90
35127;DHT22;21300;52.006;5.798;2023-04-01T03:20:45;10.10;99.90
35127;DHT22;21300;52.006;5.798;2023-04-01T03:23:11;10.10;99.90
35127;DHT22;21300;52.006;5.798;2023-04-01T03:25:37;10.10;99.90
35127;DHT22;21300;52.006;5.798;2023-04-01T03:28:03;10.10;99.90
35127;DHT22;21300;52.006;5.798;2023-04-01T03:30:29;10.10;99.90
35127;DHT22;21300;52.006;5.798;2023-04-01T03:32:58;10.10;99.90
35127;DHT22;21300;52.006;5.798;2023-04-01T03:35:25;10.10;99.90
35127;DHT22;21300;52.006;5.798;2023-04-01T03:37:51;10.10;99.90
35127;DHT22;21300;52.006;5.798;2023-04-01T03:40:17;10.10;99.90
35127;DHT22;21300;52.006;5.798;2023-04-01T03:42:42;10.10;99.90
35127;DHT22;21300;52.006;5.798;2023-04-01T03:45:08;10.10;99.90
35127;DHT22;21300;52.006;5.798;2023-04-01T03:47:35;10.00;99.90
35127;DHT22;21300;52.006;5.798;2023-04-01T03:50:01;10.10;99.90
35127;DHT22;21300;52.006;5.798;2023-04-01T03:52:26;10.10;99.90
35127;DHT22;21300;52.006;5.798;2023-04-01T03:54:52;10.10;99.90
35127;DHT22;21300;52.006;5.798;2023-04-01T03:57:17;10.10;99.90
35127;DHT22;21300;52.006;5.798;2023-04-01T03:59:43;10.10;99.90
35127;DHT22;21300;52.006;5.798;2023-04-01T04:02:09;10.10;99.90
35127;DHT22;21300;52.006;5.798;2023-04-01T04:04:34;10.10;99.90
35127;DHT22;21300;52.006;5.798;2023-04-01T04:07:00;10.00;99.90
35127;DHT22;21300;52.006;5.798;2023-04-01T04:09:26;10.00;99.90
35127;DHT22;21300;52.006;5.798;2023-04-01T04:11:52;10.00;99.90
35127;DHT22;21300;52.006;5.798;2023-04-01T04:14:17;10.00;99.90
35127;DHT22;21300;52.006;5.798;2023-04-01T04:16:43;10.00;99.90
35127;DHT22;21300;52.006;5.798;2023-04-01T04:19:09;10.00;99.90
35127;DHT22;21300;52.006;5.798;2023-04-01T04:21:35;10.00;99.90
35127;DHT22;21300;52.006;5.798;2023-04-01T04:24:01;10.00;99.90
35127;DHT22;21300;52.006;5.798;2023-04-01T04:26:27;10.00;99.90
35127;DHT22;21300;52.006;5.798;2023-04-01T04:28:54;10.00;99.90
35127;DHT22;21300;52.006;5.798;2023-04-01T04:31:21;10.00;99.90
35127;DHT22;21300;52.006;5.798;2023-04-01T04:33:47;10.00;99.90
35127;DHT22;21300;52.006;5.798;2023-04-01T04:36:13;10.00;99.90
35127;DHT22;21300;52.006;5.798;2023-04-01T04:38:38;10.00;99.90
35127;DHT22;21300;52.006;5.798;2023-04-01T04:41:09;10.00;99.90
35127;DHT22;21300;52.006;5.798;2023-04-01T04:43:35;10.00;99.90
35127;DHT22;21300;52.006;5.798;2023-04-01T04:46:05;10.00;99.90
35127;DHT22;21300;52.006;5.798;2023-04-01T04:48:31;10.00;99.90
35127;DHT22;21300;52.006;5.798;2023-04-01T04:50:56;10.00;99.90
35127;DHT22;21300;52.006;5.798;2023-04-01T04:53:22;9.90;99.90
35127;DHT22;21300;52.006;5.798;2023-04-01T04:55:49;9.90;99.90
35127;DHT22;21300;52.006;5.798;2023-04-01T04:58:16;10.00;99.90
35127;DHT22;21300;52.006;5.798;2023-04-01T05:00:42;9.90;99.90
35127;DHT22;21300;52.006;5.798;2023-04-01T05:03:09;10.00;99.90
35127;DHT22;21300;52.006;5.798;2023-04-01T05:05:34;10.00;99.90
35127;DHT22;21300;52.006;5.798;2023-04-01T05:08:00;10.00;99.90
35127;DHT22;21300;52.006;5.798;2023-04-01T05:10:26;9.90;99.90
35127;DHT22;21300;52.006;5.798;2023-04-01T05:12:51;9.90;99.90
35127;DHT22;21300;52.006;5.798;2023-04-01T05:15:17;9.90;99.90
35127;DHT22;21300;52.006;5.798;2023-04-01T05:17:43;10.00;99.90
35127;DHT22;21300;52.006;5.798;2023-04-01T05:20:09;9.90;99.90
35127;DHT22;21300;52.006;5.798;2023-04-01T05:22:35;9.90;99.90
35127;DHT22;21300;52.006;5.798;2023-04-01T05:25:00;9.90;99.90
35127;DHT22;21300;52.006;5.798;2023-04-01T05:27:26;9.90;99.90
35127;DHT22;21300;52.006;5.798;2023-04-01T05:29:51;9.90;99.90
35127;DHT22;21300;52.006;5.798;2023-04-01T05:32:17;9.90;99.90
35127;DHT22;21300;52.006;5.798;2023-04-01T05:34:43;9.90;99.90
35127;DHT22;21300;52.006;5.798;2023-04-01T05:37:08;9.90;99.90
35127;DHT22;21300;52.006;5.798;2023-04-01T05:39:38;9.90;99.90
35127;DHT22;21300;52.006;5.798;2023-04-01T05:42:06;9.90;99.90
35127;DHT22;21300;52.006;5.798;2023-04-01T05:44:31;9.90;99.90
35127;DHT22;21300;52.006;5.798;2023-04-01T05:46:57;9.90;99.90
35127;DHT22;21300;52.006;5.798;2023-04-01T05:49:22;9.90;99.90
35127;DHT22;21300;52.006;5.798;2023-04-01T05:51:48;9.90;99.90
35127;DHT22;21300;52.006;5.798;2023-04-01T05:56:57;9.90;99.90
35127;DHT22;21300;52.006;5.798;2023-04-01T05:59:23;9.90;99.90
35127;DHT22;21300;52.006;5.798;2023-04-01T06:01:49;9.90;99.90
35127;DHT22;21300;52.006;5.798;2023-04-01T06:04:16;9.90;99.90
35127;DHT22;21300;52.006;5.798;2023-04-01T06:06:43;9.90;99.90
35127;DHT22;21300;52.006;5.798;2023-04-01T06:09:15;9.90;99.90
35127;DHT22;21300;52.006;5.798;2023-04-01T06:17:01;9.90;99.90
35127;DHT22;21300;52.006;5.798;2023-04-01T06:19:40;9.90;99.90
35127;DHT22;21300;52.006;5.798;2023-04-01T06:25:01;9.90;99.90
35127;DHT22;21300;52.006;5.798;2023-04-01T06:27:56;9.90;99.90
35127;DHT22;21300;52.006;5.798;2023-04-01T06:30:47;9.90;99.90
35127;DHT22;21300;52.006;5.798;2023-04-01T06:36:30;9.90;99.90
35127;DHT22;21300;52.006;5.798;2023-04-01T06:39:32;9.90;99.90
35127;DHT22;21300;52.006;5.798;2023-04-01T06:42:17;9.90;99.90
35127;DHT22;21300;52.006;5.798;2023-04-01T06:45:12;9.90;99.90
35127;DHT22;21300;52.006;5.798;2023-04-01T06:50:30;9.90;99.90
35127;DHT22;21300;52.006;5.798;2023-04-01T06:56:18;9.80;99.90
35127;DHT22;21300;52.006;5.798;2023-04-01T06:58:49;9.90;99.90
35127;DHT22;21300;52.006;5.798;2023-04-01T07:01:54;9.90;99.90
35127;DHT22;21300;52.006;5.798;2023-04-01T07:04:30;9.90;99.90
35127;DHT22;21300;52.006;5.798;2023-04-01T07:06:57;9.90;99.90
35127;DHT22;21300;52.006;5.798;2023-04-01T07:09:32;9.90;99.90
35127;DHT22;21300;52.006;5.798;2023-04-01T07:12:02;9.90;99.90
35127;DHT22;21300;52.006;5.798;2023-04-01T07:14:36;9.90;99.90
35127;DHT22;21300;52.006;5.798;2023-04-01T07:17:14;9.90;99.90
35127;DHT22;21300;52.006;5.798;2023-04-01T07:19:52;9.90;99.90
35127;DHT22;21300;52.006;5.798;2023-04-01T07:22:50;9.90;99.90
35127;DHT22;21300;52.006;5.798;2023-04-01T07:25:17;9.90;99.90
35127;DHT22;21300;52.006;5.798;2023-04-01T07:27:45;9.90;99.90
35127;DHT22;21300;52.006;5.798;2023-04-01T07:30:16;9.90;99.90
35127;DHT22;21300;52.006;5.798;2023-04-01T07:32:55;9.90;99.90
35127;DHT22;21300;52.006;5.798;2023-04-01T07:35:46;9.90;99.90
35127;DHT22;21300;52.006;5.798;2023-04-01T07:38:36;9.90;99.90
35127;DHT22;21300;52.006;5.798;2023-04-01T07:49:17;9.90;99.90
35127;DHT22;21300;52.006;5.798;2023-04-01T07:51:52;10.00;99.90
35127;DHT22;21300;52.006;5.798;2023-04-01T08:00:02;10.00;99.90
35127;DHT22;21300;52.006;5.798;2023-04-01T08:05:30;9.90;99.90
35127;DHT22;21300;52.006;5.798;2023-04-01T08:08:15;10.00;99.90
35127;DHT22;21300;52.006;5.798;2023-04-01T08:11:01;10.00;99.90
35127;DHT22;21300;52.006;5.798;2023-04-01T08:13:45;10.00;99.90
35127;DHT22;21300;52.006;5.798;2023-04-01T08:21:47;10.00;99.90
35127;DHT22;21300;52.006;5.798;2023-04-01T08:24:40;10.00;99.90
35127;DHT22;21300;52.006;5.798;2023-04-01T08:27:16;10.00;99.90
35127;DHT22;21300;52.006;5.798;2023-04-01T08:29:58;10.00;99.90
35127;DHT22;21300;52.006;5.798;2023-04-01T08:32:41;10.10;99.90
35127;DHT22;21300;52.006;5.798;2023-04-01T08:35:23;10.00;99.90
35127;DHT22;21300;52.006;5.798;2023-04-01T08:37:52;10.10;99.90
35127;DHT22;21300;52.006;5.798;2023-04-01T08:43:30;10.10;99.90
35127;DHT22;21300;52.006;5.798;2023-04-01T08:46:06;10.10;99.90
35127;DHT22;21300;52.006;5.798;2023-04-01T08:49:01;10.10;99.90
35127;DHT22;21300;52.006;5.798;2023-04-01T08:57:18;10.10;99.90
35127;DHT22;21300;52.006;5.798;2023-04-01T09:02:53;10.20;99.90
35127;DHT22;21300;52.006;5.798;2023-04-01T09:22:22;10.20;99.90
35127;DHT22;21300;52.006;5.798;2023-04-01T09:30:37;10.30;99.90
35127;DHT22;21300;52.006;5.798;2023-04-01T09:36:12;10.20;99.90
35127;DHT22;21300;52.006;5.798;2023-04-01T09:38:55;10.30;99.90
35127;DHT22;21300;52.006;5.798;2023-04-01T09:41:36;10.30;99.90
35127;DHT22;21300;52.006;5.798;2023-04-01T10:09:46;10.30;99.90
35127;DHT22;21300;52.006;5.798;2023-04-01T10:31:47;10.50;99.90
35127;DHT22;21300;52.006;5.798;2023-04-01T10:37:01;10.60;99.90
35127;DHT22;21300;52.006;5.798;2023-04-01T10:39:59;10.60;99.90
35127;DHT22;21300;52.006;5.798;2023-04-01T10:42:58;10.60;99.90
35127;DHT22;21300;52.006;5.798;2023-04-01T10:48:31;10.70;99.90
35127;DHT22;21300;52.006;5.798;2023-04-01T10:56:42;10.70;99.90
35127;DHT22;21300;52.006;5.798;2023-04-01T11:05:04;10.70;99.90
35127;DHT22;21300;52.006;5.798;2023-04-01T11:10:49;10.70;99.90
35127;DHT22;21300;52.006;5.798;2023-04-01T11:21:45;10.80;99.90
35127;DHT22;21300;52.006;5.798;2023-04-01T11:27:30;10.80;99.90
35127;DHT22;21300;52.006;5.798;2023-04-01T11:38:09;10.90;99.90
35127;DHT22;21300;52.006;5.798;2023-04-01T11:43:49;10.90;99.90
35127;DHT22;21300;52.006;5.798;2023-04-01T11:46:25;10.90;99.90
35127;DHT22;21300;52.006;5.798;2023-04-01T11:57:40;11.00;99.90
35127;DHT22;21300;52.006;5.798;2023-04-01T12:00:33;11.00;99.90
35127;DHT22;21300;52.006;5.798;2023-04-01T12:06:30;11.00;99.90
35127;DHT22;21300;52.006;5.798;2023-04-01T12:09:26;11.00;99.90
35127;DHT22;21300;52.006;5.798;2023-04-01T12:12:13;11.00;99.90
35127;DHT22;21300;52.006;5.798;2023-04-01T12:17:43;11.00;99.90
35127;DHT22;21300;52.006;5.798;2023-04-01T12:31:58;11.00;99.90
35127;DHT22;21300;52.006;5.798;2023-04-01T12:34:54;11.00;99.90
35127;DHT22;21300;52.006;5.798;2023-04-01T12:37:39;11.00;99.90
35127;DHT22;21300;52.006;5.798;2023-04-01T12:40:31;11.00;99.90
35127;DHT22;21300;52.006;5.798;2023-04-01T12:46:24;11.00;99.90
35127;DHT22;21300;52.006;5.798;2023-04-01T12:54:15;11.00;99.90
35127;DHT22;21300;52.006;5.798;2023-04-01T12:56:53;11.00;99.90
35127;DHT22;21300;52.006;5.798;2023-04-01T13:02:21;10.90;99.90
35127;DHT22;21300;52.006;5.798;2023-04-01T13:05:21;11.00;99.90
35127;DHT22;21300;52.006;5.798;2023-04-01T13:08:16;10.90;99.90
35127;DHT22;21300;52.006;5.798;2023-04-01T13:19:12;11.00;99.90
35127;DHT22;21300;52.006;5.798;2023-04-01T13:24:52;11.00;99.90
35127;DHT22;21300;52.006;5.798;2023-04-01T13:27:40;11.00;99.90
35127;DHT22;21300;52.006;5.798;2023-04-01T13:33:15;11.10;99.90
35127;DHT22;21300;52.006;5.798;2023-04-01T13:44:02;11.10;99.90
35127;DHT22;21300;52.006;5.798;2023-04-01T14:01:17;11.10;99.90
35127;DHT22;21300;52.006;5.798;2023-04-01T14:09:25;11.10;99.90
35127;DHT22;21300;52.006;5.798;2023-04-01T14:12:00;11.10;99.90
35127;DHT22;21300;52.006;5.798;2023-04-01T14:14:52;11.10;99.90
35127;DHT22;21300;52.006;5.798;2023-04-01T14:20:39;11.10;99.90
35127;DHT22;21300;52.006;5.798;2023-04-01T14:28:53;11.10;99.90
35127;DHT22;21300;52.006;5.798;2023-04-01T14:31:59;11.10;99.90
35127;DHT22;21300;52.006;5.798;2023-04-01T14:35:09;11.10;99.90
35127;DHT22;21300;52.006;5.798;2023-04-01T14:37:58;11.10;99.90
35127;DHT22;21300;52.006;5.798;2023-04-01T14:41:01;11.10;99.90
35127;DHT22;21300;52.006;5.798;2023-04-01T14:44:03;11.10;99.90
35127;DHT22;21300;52.006;5.798;2023-04-01T14:49:04;11.10;99.90
35127;DHT22;21300;52.006;5.798;2023-04-01T14:51:48;11.10;99.90
35127;DHT22;21300;52.006;5.798;2023-04-01T14:54:18;11.10;99.90
35127;DHT22;21300;52.006;5.798;2023-04-01T14:57:15;11.10;99.90
35127;DHT22;21300;52.006;5.798;2023-04-01T14:59:48;11.10;99.90
35127;DHT22;21300;52.006;5.798;2023-04-01T15:05:39;11.10;99.90
35127;DHT22;21300;52.006;5.798;2023-04-01T15:08:12;11.10;99.90
35127;DHT22;21300;52.006;5.798;2023-04-01T15:16:27;11.10;99.90
35127;DHT22;21300;52.006;5.798;2023-04-01T15:19:21;11.10;99.90
35127;DHT22;21300;52.006;5.798;2023-04-01T15:24:56;11.20;99.90
35127;DHT22;21300;52.006;5.798;2023-04-01T15:27:30;11.20;99.90
35127;DHT22;21300;52.006;5.798;2023-04-01T15:38:42;11.10;99.90
35127;DHT22;21300;52.006;5.798;2023-04-01T15:41:17;11.20;99.90
35127;DHT22;21300;52.006;5.798;2023-04-01T15:43:49;11.20;99.90
35127;DHT22;21300;52.006;5.798;2023-04-01T15:49:22;11.20;99.90
35127;DHT22;21300;52.006;5.798;2023-04-01T15:52:06;11.10;99.90
35127;DHT22;21300;52.006;5.798;2023-04-01T16:03:26;11.10;99.90
35127;DHT22;21300;52.006;5.798;2023-04-01T16:08:55;11.10;99.90
35127;DHT22;21300;52.006;5.798;2023-04-01T16:16:53;11.10;99.90
35127;DHT22;21300;52.006;5.798;2023-04-01T16:19:25;11.10;99.90
35127;DHT22;21300;52.006;5.798;2023-04-01T16:22:23;11.10;99.90
35127;DHT22;21300;52.006;5.798;2023-04-01T16:33:03;11.00;99.90
35127;DHT22;21300;52.006;5.798;2023-04-01T16:35:53;11.10;99.90
35127;DHT22;21300;52.006;5.798;2023-04-01T16:41:15;11.10;99.90
35127;DHT22;21300;52.006;5.798;2023-04-01T16:43:45;11.00;99.90
35127;DHT22;21300;52.006;5.798;2023-04-01T16:46:37;11.10;99.90
35127;DHT22;21300;52.006;5.798;2023-04-01T16:49:27;11.10;99.90
35127;DHT22;21300;52.006;5.798;2023-04-01T16:52:04;11.00;99.90
35127;DHT22;21300;52.006;5.798;2023-04-01T16:54:57;11.10;99.90
35127;DHT22;21300;52.006;5.798;2023-04-01T16:57:37;11.00;99.90
35127;DHT22;21300;52.006;5.798;2023-04-01T17:00:26;11.00;99.90
35127;DHT22;21300;52.006;5.798;2023-04-01T17:11:55;11.00;99.90
35127;DHT22;21300;52.006;5.798;2023-04-01T17:22:41;11.00;99.90
35127;DHT22;21300;52.006;5.798;2023-04-01T17:31:00;10.90;99.90
35127;DHT22;21300;52.006;5.798;2023-04-01T17:39:49;10.80;99.90
35127;DHT22;21300;52.006;5.798;2023-04-01T17:45:28;10.80;99.90
35127;DHT22;21300;52.006;5.798;2023-04-01T17:51:25;10.80;99.90
35127;DHT22;21300;52.006;5.798;2023-04-01T18:02:24;10.70;99.90
35127;DHT22;21300;52.006;5.798;2023-04-01T18:05:14;10.70;99.90
35127;DHT22;21300;52.006;5.798;2023-04-01T18:13:29;10.70;99.90
35127;DHT22;21300;52.006;5.798;2023-04-01T18:24:21;10.60;99.90
35127;DHT22;21300;52.006;5.798;2023-04-01T18:27:03;10.60;99.90
35127;DHT22;21300;52.006;5.798;2023-04-01T18:29:54;10.60;99.90
35127;DHT22;21300;52.006;5.798;2023-04-01T18:37:51;10.60;99.90
35127;DHT22;21300;52.006;5.798;2023-04-01T18:40:43;10.60;99.90
35127;DHT22;21300;52.006;5.798;2023-04-01T18:43:29;10.50;99.90
35127;DHT22;21300;52.006;5.798;2023-04-01T18:46:00;10.50;99.90
35127;DHT22;21300;52.006;5.798;2023-04-01T18:51:24;10.50;99.90
35127;DHT22;21300;52.006;5.798;2023-04-01T18:53:59;10.50;99.90
35127;DHT22;21300;52.006;5.798;2023-04-01T18:59:02;10.50;99.90
35127;DHT22;21300;52.006;5.798;2023-04-01T19:01:40;10.40;99.90
35127;DHT22;21300;52.006;5.798;2023-04-01T19:06:58;10.40;99.90
35127;DHT22;21300;52.006;5.798;2023-04-01T19:37:03;10.30;99.90
35127;DHT22;21300;52.006;5.798;2023-04-01T19:42:34;10.30;99.90
35127;DHT22;21300;52.006;5.798;2023-04-01T19:51:10;10.20;99.90
35127;DHT22;21300;52.006;5.798;2023-04-01T19:56:19;10.20;99.90
35127;DHT22;21300;52.006;5.798;2023-04-01T19:58:57;10.20;99.90
35127;DHT22;21300;52.006;5.798;2023-04-01T20:04:11;10.20;99.90
35127;DHT22;21300;52.006;5.798;2023-04-01T20:09:38;10.20;99.90
35127;DHT22;21300;52.006;5.798;2023-04-01T20:15:04;10.10;99.90
35127;DHT22;21300;52.006;5.798;2023-04-01T20:17:44;10.10;99.90
35127;DHT22;21300;52.006;5.798;2023-04-01T20:25:23;10.10;99.90
35127;DHT22;21300;52.006;5.798;2023-04-01T20:27:56;10.10;99.90
35127;DHT22;21300;52.006;5.798;2023-04-01T20:33:21;10.00;99.90
35127;DHT22;21300;52.006;5.798;2023-04-01T20:36:24;10.00;99.90
35127;DHT22;21300;52.006;5.798;2023-04-01T20:39:01;10.00;99.90
35127;DHT22;21300;52.006;5.798;2023-04-01T20:42:02;9.90;99.90
35127;DHT22;21300;52.006;5.798;2023-04-01T20:47:39;9.90;99.90
35127;DHT22;21300;52.006;5.798;2023-04-01T20:53:12;9.90;99.90
35127;DHT22;21300;52.006;5.798;2023-04-01T20:58:27;9.80;99.90
35127;DHT22;21300;52.006;5.798;2023-04-01T21:04:10;9.80;99.90
35127;DHT22;21300;52.006;5.798;2023-04-01T21:09:44;9.80;99.90
35127;DHT22;21300;52.006;5.798;2023-04-01T21:42:32;9.60;99.90
35127;DHT22;21300;52.006;5.798;2023-04-01T21:48:12;9.60;99.90
35127;DHT22;21300;52.006;5.798;2023-04-01T21:50:44;9.60;99.90
35127;DHT22;21300;52.006;5.798;2023-04-01T21:56:09;9.50;99.90
35127;DHT22;21300;52.006;5.798;2023-04-01T22:01:34;9.50;99.90
35127;DHT22;21300;52.006;5.798;2023-04-01T22:09:46;9.50;99.90
35127;DHT22;21300;52.006;5.798;2023-04-01T22:12:38;9.50;99.90
35127;DHT22;21300;52.006;5.798;2023-04-01T22:15:26;9.40;99.90
35127;DHT22;21300;52.006;5.798;2023-04-01T22:18:24;9.40;99.90
35127;DHT22;21300;52.006;5.798;2023-04-01T22:21:19;9.40;99.90
35127;DHT22;21300;52.006;5.798;2023-04-01T22:24:12;9.40;99.90
35127;DHT22;21300;52.006;5.798;2023-04-01T22:32:23;9.40;99.90
35127;DHT22;21300;52.006;5.798;2023-04-01T22:35:30;9.40;99.90
35127;DHT22;21300;52.006;5.798;2023-04-01T22:40:59;9.30;99.90
35127;DHT22;21300;52.006;5.798;2023-04-01T22:43:41;9.30;99.90
35127;DHT22;21300;52.006;5.798;2023-04-01T22:49:19;9.30;99.90
35127;DHT22;21300;52.006;5.798;2023-04-01T22:51:55;9.30;99.90
35127;DHT22;21300;52.006;5.798;2023-04-01T22:54:39;9.20;99.90
35127;DHT22;21300;52.006;5.798;2023-04-01T22:57:31;9.20;99.90
35127;DHT22;21300;52.006;5.798;2023-04-01T23:02:43;9.20;99.90
35127;DHT22;21300;52.006;5.798;2023-04-01T23:05:14;9.20;99.90
35127;DHT22;21300;52.006;5.798;2023-04-01T23:08:01;9.10;99.90
35127;DHT22;21300;52.006;5.798;2023-04-01T23:10:46;9.10;99.90
35127;DHT22;21300;52.006;5.798;2023-04-01T23:13:22;9.20;99.90
35127;DHT22;21300;52.006;5.798;2023-04-01T23:16:09;9.20;99.90
35127;DHT22;21300;52.006;5.798;2023-04-01T23:29:27;9.10;99.90
35127;DHT22;21300;52.006;5.798;2023-04-01T23:32:00;9.10;99.90
35127;DHT22;21300;52.006;5.798;2023-04-01T23:34:34;9.00;99.90
35127;DHT22;21300;52.006;5.798;2023-04-01T23:37:07;9.00;99.90
35127;DHT22;21300;52.006;5.798;2023-04-01T23:39:36;9.00;99.90
35127;DHT22;21300;52.006;5.798;2023-04-01T23:42:11;9.00;99.90
35127;DHT22;21300;52.006;5.798;2023-04-01T23:44:39;9.00;99.90
35127;DHT22;21300;52.006;5.798;2023-04-01T23:47:06;9.00;99.90
35127;DHT22;21300;52.006;5.798;2023-04-01T23:49:38;9.00;99.90
35127;DHT22;21300;52.006;5.798;2023-04-01T23:52:22;8.90;99.90
35127;DHT22;21300;52.006;5.798;2023-04-01T23:55:00;9.00;99.90
35127;DHT22;21300;52.006;5.798;2023-04-01T23:57:33;8.90;99.90
